sensor_id;sensor_type;location;lat;lon;timestamp;temperature;humidity
13426;DHT22;6785;57.918;12.530;2022-07-29T00:00:31;12.40;99.90
13426;DHT22;6785;57.918;12.530;2022-07-29T00:02:58;12.50;99.90
13426;DHT22;6785;57.918;12.530;2022-07-29T00:05:25;12.50;99.90
13426;DHT22;6785;57.918;12.530;2022-07-29T00:07:52;12.50;99.90
13426;DHT22;6785;57.918;12.530;2022-07-29T00:10:20;12.50;99.90
13426;DHT22;6785;57.918;12.530;2022-07-29T00:12:47;12.50;99.90
13426;DHT22;6785;57.918;12.530;2022-07-29T00:15:14;12.50;99.90
13426;DHT22;6785;57.918;12.530;2022-07-29T00:17:42;12.40;99.90
13426;DHT22;6785;57.918;12.530;2022-07-29T00:20:10;12.40;99.90
13426;DHT22;6785;57.918;12.530;2022-07-29T00:22:37;12.30;99.90
13426;DHT22;6785;57.918;12.530;2022-07-29T00:25:05;12.30;99.90
13426;DHT22;6785;57.918;12.530;2022-07-29T00:27:32;12.30;99.90
13426;DHT22;6785;57.918;12.530;2022-07-29T00:29:59;12.20;99.90
13426;DHT22;6785;57.918;12.530;2022-07-29T00:32:26;12.20;99.90
13426;DHT22;6785;57.918;12.530;2022-07-29T00:34:55;12.10;99.90
13426;DHT22;6785;57.918;12.530;2022-07-29T00:37:39;12.00;99.90
13426;DHT22;6785;57.918;12.530;2022-07-29T00:40:07;12.10;99.90
13426;DHT22;6785;57.918;12.530;2022-07-29T00:42:41;12.10;99.90
13426;DHT22;6785;57.918;12.530;2022-07-29T00:45:09;12.10;99.90
13426;DHT22;6785;57.918;12.530;2022-07-29T00:47:36;12.00;99.90
13426;DHT22;6785;57.918;12.530;2022-07-29T00:50:06;12.10;99.90
13426;DHT22;6785;57.918;12.530;2022-07-29T00:52:34;12.10;99.90
13426;DHT22;6785;57.918;12.530;2022-07-29T00:55:02;12.00;99.90
13426;DHT22;6785;57.918;12.530;2022-07-29T00:57:30;12.10;99.90
13426;DHT22;6785;57.918;12.530;2022-07-29T00:59:57;12.00;99.90
13426;DHT22;6785;57.918;12.530;2022-07-29T01:02:24;12.10;99.90
13426;DHT22;6785;57.918;12.530;2022-07-29T01:04:51;12.10;99.90
13426;DHT22;6785;57.918;12.530;2022-07-29T01:07:19;12.00;99.90
13426;DHT22;6785;57.918;12.530;2022-07-29T01:09:47;12.00;99.90
13426;DHT22;6785;57.918;12.530;2022-07-29T01:12:16;12.00;99.90
13426;DHT22;6785;57.918;12.530;2022-07-29T01:14:43;12.00;99.90
13426;DHT22;6785;57.918;12.530;2022-07-29T01:17:14;12.00;99.90
13426;DHT22;6785;57.918;12.530;2022-07-29T01:19:50;11.90;99.90
13426;DHT22;6785;57.918;12.530;2022-07-29T01:22:27;11.90;99.90
13426;DHT22;6785;57.918;12.530;2022-07-29T01:25:10;11.80;99.90
13426;DHT22;6785;57.918;12.530;2022-07-29T01:27:48;11.70;99.90
13426;DHT22;6785;57.918;12.530;2022-07-29T01:30:22;11.70;99.90
13426;DHT22;6785;57.918;12.530;2022-07-29T01:32:54;11.60;99.90
13426;DHT22;6785;57.918;12.530;2022-07-29T01:35:28;11.60;99.90
13426;DHT22;6785;57.918;12.530;2022-07-29T01:38:04;11.60;99.90
13426;DHT22;6785;57.918;12.530;2022-07-29T01:40:36;11.70;99.90
13426;DHT22;6785;57.918;12.530;2022-07-29T01:43:11;11.60;99.90
13426;DHT22;6785;57.918;12.530;2022-07-29T01:45:43;11.50;99.90
13426;DHT22;6785;57.918;12.530;2022-07-29T01:48:15;11.40;99.90
13426;DHT22;6785;57.918;12.530;2022-07-29T01:50:48;11.30;99.90
13426;DHT22;6785;57.918;12.530;2022-07-29T01:53:23;11.30;99.90
13426;DHT22;6785;57.918;12.530;2022-07-29T01:55:52;11.30;99.90
13426;DHT22;6785;57.918;12.530;2022-07-29T01:58:19;11.30;99.90
13426;DHT22;6785;57.918;12.530;2022-07-29T02:00:50;11.30;99.90
13426;DHT22;6785;57.918;12.530;2022-07-29T02:03:19;11.20;99.90
13426;DHT22;6785;57.918;12.530;2022-07-29T02:05:48;11.20;99.90
13426;DHT22;6785;57.918;12.530;2022-07-29T02:08:17;11.10;99.90
13426;DHT22;6785;57.918;12.530;2022-07-29T02:10:46;11.00;99.90
13426;DHT22;6785;57.918;12.530;2022-07-29T02:13:15;10.90;99.90
13426;DHT22;6785;57.918;12.530;2022-07-29T02:15:44;11.10;99.90
13426;DHT22;6785;57.918;12.530;2022-07-29T02:18:16;11.00;99.90
13426;DHT22;6785;57.918;12.530;2022-07-29T02:20:46;11.00;99.90
13426;DHT22;6785;57.918;12.530;2022-07-29T02:23:19;11.00;99.90
13426;DHT22;6785;57.918;12.530;2022-07-29T02:25:48;11.00;99.90
13426;DHT22;6785;57.918;12.530;2022-07-29T02:28:23;11.10;99.90
13426;DHT22;6785;57.918;12.530;2022-07-29T02:30:52;11.00;99.90
13426;DHT22;6785;57.918;12.530;2022-07-29T02:33:21;11.00;99.90
13426;DHT22;6785;57.918;12.530;2022-07-29T02:35:50;11.00;99.90
13426;DHT22;6785;57.918;12.530;2022-07-29T02:38:18;11.00;99.90
13426;DHT22;6785;57.918;12.530;2022-07-29T02:41:05;11.00;99.90
13426;DHT22;6785;57.918;12.530;2022-07-29T02:43:34;11.00;99.90
13426;DHT22;6785;57.918;12.530;2022-07-29T02:46:05;11.00;99.90
13426;DHT22;6785;57.918;12.530;2022-07-29T02:48:38;11.00;99.90
13426;DHT22;6785;57.918;12.530;2022-07-29T02:51:12;11.00;99.90
13426;DHT22;6785;57.918;12.530;2022-07-29T02:53:40;11.00;99.90
13426;DHT22;6785;57.918;12.530;2022-07-29T02:56:13;11.00;99.90
13426;DHT22;6785;57.918;12.530;2022-07-29T02:58:42;11.00;99.90
13426;DHT22;6785;57.918;12.530;2022-07-29T03:01:20;11.00;99.90
13426;DHT22;6785;57.918;12.530;2022-07-29T03:03:51;11.00;99.90
13426;DHT22;6785;57.918;12.530;2022-07-29T03:06:20;11.00;99.90
13426;DHT22;6785;57.918;12.530;2022-07-29T03:08:48;11.00;99.90
13426;DHT22;6785;57.918;12.530;2022-07-29T03:11:17;11.10;99.90
13426;DHT22;6785;57.918;12.530;2022-07-29T03:13:44;11.00;99.90
13426;DHT22;6785;57.918;12.530;2022-07-29T03:16:12;11.10;99.90
13426;DHT22;6785;57.918;12.530;2022-07-29T03:18:39;11.10;99.90
13426;DHT22;6785;57.918;12.530;2022-07-29T03:21:08;11.10;99.90
13426;DHT22;6785;57.918;12.530;2022-07-29T03:23:35;11.10;99.90
13426;DHT22;6785;57.918;12.530;2022-07-29T03:26:01;11.10;99.90
13426;DHT22;6785;57.918;12.530;2022-07-29T03:28:29;11.00;99.90
13426;DHT22;6785;57.918;12.530;2022-07-29T03:30:56;11.10;99.90
13426;DHT22;6785;57.918;12.530;2022-07-29T03:33:23;11.10;99.90
13426;DHT22;6785;57.918;12.530;2022-07-29T03:35:49;11.20;99.90
13426;DHT22;6785;57.918;12.530;2022-07-29T03:38:18;11.20;99.90
13426;DHT22;6785;57.918;12.530;2022-07-29T03:40:49;11.30;99.90
13426;DHT22;6785;57.918;12.530;2022-07-29T03:43:18;11.40;99.90
13426;DHT22;6785;57.918;12.530;2022-07-29T03:45:47;11.40;99.90
13426;DHT22;6785;57.918;12.530;2022-07-29T03:48:19;11.40;99.90
13426;DHT22;6785;57.918;12.530;2022-07-29T03:50:46;11.40;99.90
13426;DHT22;6785;57.918;12.530;2022-07-29T03:53:13;11.50;99.90
13426;DHT22;6785;57.918;12.530;2022-07-29T03:55:44;11.50;99.90
13426;DHT22;6785;57.918;12.530;2022-07-29T03:58:13;11.60;99.90
13426;DHT22;6785;57.918;12.530;2022-07-29T04:00:40;11.60;99.90
13426;DHT22;6785;57.918;12.530;2022-07-29T04:03:09;11.70;99.90
13426;DHT22;6785;57.918;12.530;2022-07-29T04:05:36;11.90;99.90
13426;DHT22;6785;57.918;12.530;2022-07-29T04:08:04;11.90;99.90
13426;DHT22;6785;57.918;12.530;2022-07-29T04:10:31;12.00;99.90
13426;DHT22;6785;57.918;12.530;2022-07-29T04:13:00;12.00;99.90
13426;DHT22;6785;57.918;12.530;2022-07-29T04:15:27;12.10;99.90
13426;DHT22;6785;57.918;12.530;2022-07-29T04:17:54;12.10;99.90
13426;DHT22;6785;57.918;12.530;2022-07-29T04:20:21;12.20;99.90
13426;DHT22;6785;57.918;12.530;2022-07-29T04:22:47;12.30;99.90
13426;DHT22;6785;57.918;12.530;2022-07-29T04:25:14;12.40;99.90
13426;DHT22;6785;57.918;12.530;2022-07-29T04:27:41;12.40;99.90
13426;DHT22;6785;57.918;12.530;2022-07-29T04:30:23;12.50;99.90
13426;DHT22;6785;57.918;12.530;2022-07-29T04:32:50;12.60;99.90
13426;DHT22;6785;57.918;12.530;2022-07-29T04:35:17;12.60;99.90
13426;DHT22;6785;57.918;12.530;2022-07-29T04:37:43;12.60;99.90
13426;DHT22;6785;57.918;12.530;2022-07-29T04:40:11;12.60;99.90
13426;DHT22;6785;57.918;12.530;2022-07-29T04:42:38;12.70;99.90
13426;DHT22;6785;57.918;12.530;2022-07-29T04:45:06;12.70;99.90
13426;DHT22;6785;57.918;12.530;2022-07-29T04:47:34;12.80;99.90
13426;DHT22;6785;57.918;12.530;2022-07-29T04:50:01;12.80;99.90
13426;DHT22;6785;57.918;12.530;2022-07-29T04:52:28;13.00;99.90
13426;DHT22;6785;57.918;12.530;2022-07-29T04:54:54;13.00;99.90
13426;DHT22;6785;57.918;12.530;2022-07-29T04:57:21;13.10;99.90
13426;DHT22;6785;57.918;12.530;2022-07-29T04:59:48;13.10;99.90
13426;DHT22;6785;57.918;12.530;2022-07-29T05:02:15;13.20;99.90
13426;DHT22;6785;57.918;12.530;2022-07-29T05:04:43;13.30;99.90
13426;DHT22;6785;57.918;12.530;2022-07-29T05:07:10;13.40;99.90
13426;DHT22;6785;57.918;12.530;2022-07-29T05:09:37;13.40;99.90
13426;DHT22;6785;57.918;12.530;2022-07-29T05:12:04;13.50;99.90
13426;DHT22;6785;57.918;12.530;2022-07-29T05:14:31;13.60;99.90
13426;DHT22;6785;57.918;12.530;2022-07-29T05:16:58;13.50;99.90
13426;DHT22;6785;57.918;12.530;2022-07-29T05:19:24;13.70;99.90
13426;DHT22;6785;57.918;12.530;2022-07-29T05:21:53;13.80;99.90
13426;DHT22;6785;57.918;12.530;2022-07-29T05:24:19;13.90;99.90
13426;DHT22;6785;57.918;12.530;2022-07-29T05:26:46;14.00;99.90
13426;DHT22;6785;57.918;12.530;2022-07-29T05:29:13;14.00;99.90
13426;DHT22;6785;57.918;12.530;2022-07-29T05:31:40;14.10;99.90
13426;DHT22;6785;57.918;12.530;2022-07-29T05:34:07;14.30;99.90
13426;DHT22;6785;57.918;12.530;2022-07-29T05:36:33;14.40;99.90
13426;DHT22;6785;57.918;12.530;2022-07-29T05:39:02;14.60;99.90
13426;DHT22;6785;57.918;12.530;2022-07-29T05:41:31;14.70;99.90
13426;DHT22;6785;57.918;12.530;2022-07-29T05:44:02;14.90;99.90
13426;DHT22;6785;57.918;12.530;2022-07-29T05:46:29;15.00;99.90
13426;DHT22;6785;57.918;12.530;2022-07-29T05:48:56;15.10;99.90
13426;DHT22;6785;57.918;12.530;2022-07-29T05:51:23;15.20;99.90
13426;DHT22;6785;57.918;12.530;2022-07-29T05:53:50;15.40;99.90
13426;DHT22;6785;57.918;12.530;2022-07-29T05:56:18;15.50;99.90
13426;DHT22;6785;57.918;12.530;2022-07-29T05:58:45;15.60;99.90
13426;DHT22;6785;57.918;12.530;2022-07-29T06:01:12;15.70;99.90
13426;DHT22;6785;57.918;12.530;2022-07-29T06:03:39;15.80;99.90
13426;DHT22;6785;57.918;12.530;2022-07-29T06:06:06;16.00;99.90
13426;DHT22;6785;57.918;12.530;2022-07-29T06:08:34;16.10;99.90
13426;DHT22;6785;57.918;12.530;2022-07-29T06:11:02;16.10;99.90
13426;DHT22;6785;57.918;12.530;2022-07-29T06:13:31;16.30;99.90
13426;DHT22;6785;57.918;12.530;2022-07-29T06:15:58;16.40;99.90
13426;DHT22;6785;57.918;12.530;2022-07-29T06:18:24;16.60;99.90
13426;DHT22;6785;57.918;12.530;2022-07-29T06:20:52;16.70;99.90
13426;DHT22;6785;57.918;12.530;2022-07-29T06:23:19;16.80;99.90
13426;DHT22;6785;57.918;12.530;2022-07-29T06:25:46;17.00;99.90
13426;DHT22;6785;57.918;12.530;2022-07-29T06:28:13;17.20;99.90
13426;DHT22;6785;57.918;12.530;2022-07-29T06:30:42;17.40;99.90
13426;DHT22;6785;57.918;12.530;2022-07-29T06:33:09;17.60;99.90
13426;DHT22;6785;57.918;12.530;2022-07-29T06:35:36;17.80;99.90
13426;DHT22;6785;57.918;12.530;2022-07-29T06:38:04;18.10;99.90
13426;DHT22;6785;57.918;12.530;2022-07-29T06:40:31;18.20;99.90
13426;DHT22;6785;57.918;12.530;2022-07-29T06:43:16;18.50;99.90
13426;DHT22;6785;57.918;12.530;2022-07-29T06:45:44;18.80;99.90
13426;DHT22;6785;57.918;12.530;2022-07-29T06:48:11;19.00;99.90
13426;DHT22;6785;57.918;12.530;2022-07-29T06:50:38;19.20;99.90
13426;DHT22;6785;57.918;12.530;2022-07-29T06:53:05;19.20;99.90
13426;DHT22;6785;57.918;12.530;2022-07-29T06:55:32;19.40;99.90
13426;DHT22;6785;57.918;12.530;2022-07-29T06:57:58;19.70;99.90
13426;DHT22;6785;57.918;12.530;2022-07-29T07:00:25;19.80;99.90
13426;DHT22;6785;57.918;12.530;2022-07-29T07:02:53;20.00;99.90
13426;DHT22;6785;57.918;12.530;2022-07-29T07:05:20;20.20;99.90
13426;DHT22;6785;57.918;12.530;2022-07-29T07:07:47;20.30;99.90
13426;DHT22;6785;57.918;12.530;2022-07-29T07:10:14;20.60;99.90
13426;DHT22;6785;57.918;12.530;2022-07-29T07:12:41;20.50;99.90
13426;DHT22;6785;57.918;12.530;2022-07-29T07:15:08;20.80;99.90
13426;DHT22;6785;57.918;12.530;2022-07-29T07:17:35;21.00;99.90
13426;DHT22;6785;57.918;12.530;2022-07-29T07:20:05;21.10;99.90
13426;DHT22;6785;57.918;12.530;2022-07-29T07:22:32;21.30;99.90
13426;DHT22;6785;57.918;12.530;2022-07-29T07:24:59;21.60;99.90
13426;DHT22;6785;57.918;12.530;2022-07-29T07:27:27;21.60;99.90
13426;DHT22;6785;57.918;12.530;2022-07-29T07:29:53;21.70;99.90
13426;DHT22;6785;57.918;12.530;2022-07-29T07:32:20;21.60;99.90
13426;DHT22;6785;57.918;12.530;2022-07-29T07:34:47;21.60;99.90
13426;DHT22;6785;57.918;12.530;2022-07-29T07:37:15;21.50;99.90
13426;DHT22;6785;57.918;12.530;2022-07-29T07:39:44;21.60;99.90
13426;DHT22;6785;57.918;12.530;2022-07-29T07:42:11;21.60;99.90
13426;DHT22;6785;57.918;12.530;2022-07-29T07:44:38;21.60;99.90
13426;DHT22;6785;57.918;12.530;2022-07-29T07:47:05;21.90;99.90
13426;DHT22;6785;57.918;12.530;2022-07-29T07:49:32;22.00;99.90
13426;DHT22;6785;57.918;12.530;2022-07-29T07:51:59;22.30;99.90
13426;DHT22;6785;57.918;12.530;2022-07-29T07:54:27;22.40;99.90
13426;DHT22;6785;57.918;12.530;2022-07-29T07:56:54;22.40;99.90
13426;DHT22;6785;57.918;12.530;2022-07-29T07:59:21;22.50;99.90
13426;DHT22;6785;57.918;12.530;2022-07-29T08:01:48;22.70;99.90
13426;DHT22;6785;57.918;12.530;2022-07-29T08:04:15;22.60;99.90
13426;DHT22;6785;57.918;12.530;2022-07-29T08:06:42;22.90;99.90
13426;DHT22;6785;57.918;12.530;2022-07-29T08:09:08;23.30;99.90
13426;DHT22;6785;57.918;12.530;2022-07-29T08:11:37;23.30;99.90
13426;DHT22;6785;57.918;12.530;2022-07-29T08:14:04;23.30;99.90
13426;DHT22;6785;57.918;12.530;2022-07-29T08:16:31;23.40;99.90
13426;DHT22;6785;57.918;12.530;2022-07-29T08:18:57;23.60;99.90
13426;DHT22;6785;57.918;12.530;2022-07-29T08:21:24;23.80;99.90
13426;DHT22;6785;57.918;12.530;2022-07-29T08:23:51;23.80;99.90
13426;DHT22;6785;57.918;12.530;2022-07-29T08:26:40;23.80;99.90
13426;DHT22;6785;57.918;12.530;2022-07-29T08:29:08;23.60;99.90
13426;DHT22;6785;57.918;12.530;2022-07-29T08:31:35;23.60;99.90
13426;DHT22;6785;57.918;12.530;2022-07-29T08:34:02;23.80;99.90
13426;DHT22;6785;57.918;12.530;2022-07-29T08:36:29;23.90;99.90
13426;DHT22;6785;57.918;12.530;2022-07-29T08:38:57;23.90;99.90
13426;DHT22;6785;57.918;12.530;2022-07-29T08:41:24;23.70;99.90
13426;DHT22;6785;57.918;12.530;2022-07-29T08:43:53;23.80;99.90
13426;DHT22;6785;57.918;12.530;2022-07-29T08:46:20;23.90;99.90
13426;DHT22;6785;57.918;12.530;2022-07-29T08:48:47;23.90;99.90
13426;DHT22;6785;57.918;12.530;2022-07-29T08:51:15;24.00;99.90
13426;DHT22;6785;57.918;12.530;2022-07-29T08:53:44;24.20;99.90
13426;DHT22;6785;57.918;12.530;2022-07-29T08:56:12;24.00;99.90
13426;DHT22;6785;57.918;12.530;2022-07-29T08:58:39;24.10;99.90
13426;DHT22;6785;57.918;12.530;2022-07-29T09:01:08;23.70;99.90
13426;DHT22;6785;57.918;12.530;2022-07-29T09:03:39;23.50;99.90
13426;DHT22;6785;57.918;12.530;2022-07-29T09:06:07;23.70;99.90
13426;DHT22;6785;57.918;12.530;2022-07-29T09:08:34;23.90;99.90
13426;DHT22;6785;57.918;12.530;2022-07-29T09:11:02;23.70;99.90
13426;DHT22;6785;57.918;12.530;2022-07-29T09:13:29;23.80;99.90
13426;DHT22;6785;57.918;12.530;2022-07-29T09:15:56;23.80;99.90
13426;DHT22;6785;57.918;12.530;2022-07-29T09:18:38;23.80;99.90
13426;DHT22;6785;57.918;12.530;2022-07-29T09:21:06;23.50;99.90
13426;DHT22;6785;57.918;12.530;2022-07-29T09:24:04;23.60;99.90
13426;DHT22;6785;57.918;12.530;2022-07-29T09:26:33;23.80;99.90
13426;DHT22;6785;57.918;12.530;2022-07-29T09:29:09;23.80;99.90
13426;DHT22;6785;57.918;12.530;2022-07-29T09:31:38;23.80;99.90
13426;DHT22;6785;57.918;12.530;2022-07-29T09:34:08;23.90;99.90
13426;DHT22;6785;57.918;12.530;2022-07-29T09:36:42;23.90;99.90
13426;DHT22;6785;57.918;12.530;2022-07-29T09:39:09;23.90;99.90
13426;DHT22;6785;57.918;12.530;2022-07-29T09:41:46;23.90;99.90
13426;DHT22;6785;57.918;12.530;2022-07-29T09:44:14;23.90;99.90
13426;DHT22;6785;57.918;12.530;2022-07-29T09:46:56;24.00;99.90
13426;DHT22;6785;57.918;12.530;2022-07-29T09:49:25;24.10;99.90
13426;DHT22;6785;57.918;12.530;2022-07-29T09:52:06;24.30;99.90
13426;DHT22;6785;57.918;12.530;2022-07-29T09:54:33;24.40;98.40
13426;DHT22;6785;57.918;12.530;2022-07-29T09:57:05;24.50;99.90
13426;DHT22;6785;57.918;12.530;2022-07-29T09:59:33;24.70;99.90
13426;DHT22;6785;57.918;12.530;2022-07-29T10:01:59;24.80;99.90
13426;DHT22;6785;57.918;12.530;2022-07-29T10:04:43;24.90;99.90
13426;DHT22;6785;57.918;12.530;2022-07-29T10:07:09;24.70;99.90
13426;DHT22;6785;57.918;12.530;2022-07-29T10:09:36;24.40;99.90
13426;DHT22;6785;57.918;12.530;2022-07-29T10:12:13;24.20;99.90
13426;DHT22;6785;57.918;12.530;2022-07-29T10:14:41;24.40;99.90
13426;DHT22;6785;57.918;12.530;2022-07-29T10:17:09;24.20;99.90
13426;DHT22;6785;57.918;12.530;2022-07-29T10:19:37;24.10;99.90
13426;DHT22;6785;57.918;12.530;2022-07-29T10:22:07;24.00;99.90
13426;DHT22;6785;57.918;12.530;2022-07-29T10:24:36;24.00;99.90
13426;DHT22;6785;57.918;12.530;2022-07-29T10:27:04;24.00;99.90
13426;DHT22;6785;57.918;12.530;2022-07-29T10:29:32;23.70;99.90
13426;DHT22;6785;57.918;12.530;2022-07-29T10:32:16;23.70;99.90
13426;DHT22;6785;57.918;12.530;2022-07-29T10:35:00;23.80;99.90
13426;DHT22;6785;57.918;12.530;2022-07-29T10:40:29;23.80;99.90
13426;DHT22;6785;57.918;12.530;2022-07-29T10:43:22;23.40;99.90
13426;DHT22;6785;57.918;12.530;2022-07-29T10:45:56;23.20;99.90
13426;DHT22;6785;57.918;12.530;2022-07-29T10:48:24;23.10;99.90
13426;DHT22;6785;57.918;12.530;2022-07-29T10:50:55;23.00;99.90
13426;DHT22;6785;57.918;12.530;2022-07-29T10:53:24;23.00;99.90
13426;DHT22;6785;57.918;12.530;2022-07-29T10:55:52;22.90;99.90
13426;DHT22;6785;57.918;12.530;2022-07-29T10:58:20;22.80;99.90
13426;DHT22;6785;57.918;12.530;2022-07-29T11:00:49;22.80;99.90
13426;DHT22;6785;57.918;12.530;2022-07-29T11:03:44;22.70;99.90
13426;DHT22;6785;57.918;12.530;2022-07-29T11:06:12;22.30;99.90
13426;DHT22;6785;57.918;12.530;2022-07-29T11:08:41;22.20;99.90
13426;DHT22;6785;57.918;12.530;2022-07-29T11:11:35;22.30;99.90
13426;DHT22;6785;57.918;12.530;2022-07-29T11:14:06;22.50;99.90
13426;DHT22;6785;57.918;12.530;2022-07-29T11:16:59;22.80;99.90
13426;DHT22;6785;57.918;12.530;2022-07-29T11:19:28;22.80;99.90
13426;DHT22;6785;57.918;12.530;2022-07-29T11:21:55;23.00;99.90
13426;DHT22;6785;57.918;12.530;2022-07-29T11:24:25;22.90;99.90
13426;DHT22;6785;57.918;12.530;2022-07-29T11:27:14;23.00;99.90
13426;DHT22;6785;57.918;12.530;2022-07-29T11:29:51;22.90;99.90
13426;DHT22;6785;57.918;12.530;2022-07-29T11:32:19;22.90;99.90
13426;DHT22;6785;57.918;12.530;2022-07-29T11:34:48;23.10;99.90
13426;DHT22;6785;57.918;12.530;2022-07-29T11:37:22;23.40;99.90
13426;DHT22;6785;57.918;12.530;2022-07-29T11:40:15;23.90;99.90
13426;DHT22;6785;57.918;12.530;2022-07-29T11:42:44;24.10;99.90
13426;DHT22;6785;57.918;12.530;2022-07-29T11:45:13;24.40;99.90
13426;DHT22;6785;57.918;12.530;2022-07-29T11:47:41;24.20;99.90
13426;DHT22;6785;57.918;12.530;2022-07-29T11:50:16;24.00;99.90
13426;DHT22;6785;57.918;12.530;2022-07-29T11:52:44;23.80;99.90
13426;DHT22;6785;57.918;12.530;2022-07-29T11:55:13;23.60;99.90
13426;DHT22;6785;57.918;12.530;2022-07-29T11:57:50;23.40;99.90
13426;DHT22;6785;57.918;12.530;2022-07-29T12:00:26;23.30;99.90
13426;DHT22;6785;57.918;12.530;2022-07-29T12:02:54;23.10;99.90
13426;DHT22;6785;57.918;12.530;2022-07-29T12:05:31;23.10;99.90
13426;DHT22;6785;57.918;12.530;2022-07-29T12:08:08;23.10;99.90
13426;DHT22;6785;57.918;12.530;2022-07-29T12:10:35;23.10;99.90
13426;DHT22;6785;57.918;12.530;2022-07-29T12:13:04;23.10;99.90
13426;DHT22;6785;57.918;12.530;2022-07-29T12:15:31;23.10;99.90
13426;DHT22;6785;57.918;12.530;2022-07-29T12:17:59;23.10;99.90
13426;DHT22;6785;57.918;12.530;2022-07-29T12:20:35;23.20;99.90
13426;DHT22;6785;57.918;12.530;2022-07-29T12:23:05;23.10;99.90
13426;DHT22;6785;57.918;12.530;2022-07-29T12:25:33;23.10;99.90
13426;DHT22;6785;57.918;12.530;2022-07-29T12:28:02;23.00;99.90
13426;DHT22;6785;57.918;12.530;2022-07-29T12:30:42;23.10;99.90
13426;DHT22;6785;57.918;12.530;2022-07-29T12:33:18;23.20;99.90
13426;DHT22;6785;57.918;12.530;2022-07-29T12:35:49;23.20;99.90
13426;DHT22;6785;57.918;12.530;2022-07-29T12:38:17;23.30;99.90
13426;DHT22;6785;57.918;12.530;2022-07-29T12:40:45;23.40;99.90
13426;DHT22;6785;57.918;12.530;2022-07-29T12:43:13;23.50;99.90
13426;DHT22;6785;57.918;12.530;2022-07-29T12:45:44;23.50;99.90
13426;DHT22;6785;57.918;12.530;2022-07-29T12:48:11;23.60;99.90
13426;DHT22;6785;57.918;12.530;2022-07-29T12:50:55;23.70;99.60
13426;DHT22;6785;57.918;12.530;2022-07-29T12:53:23;24.00;99.90
13426;DHT22;6785;57.918;12.530;2022-07-29T12:55:52;24.20;99.90
13426;DHT22;6785;57.918;12.530;2022-07-29T12:58:30;24.30;99.90
13426;DHT22;6785;57.918;12.530;2022-07-29T13:01:07;24.30;99.90
13426;DHT22;6785;57.918;12.530;2022-07-29T13:03:45;24.20;99.90
13426;DHT22;6785;57.918;12.530;2022-07-29T13:06:36;24.10;99.90
13426;DHT22;6785;57.918;12.530;2022-07-29T13:09:06;23.90;99.90
13426;DHT22;6785;57.918;12.530;2022-07-29T13:11:35;23.70;99.90
13426;DHT22;6785;57.918;12.530;2022-07-29T13:14:02;23.40;99.90
13426;DHT22;6785;57.918;12.530;2022-07-29T13:16:31;23.10;99.90
13426;DHT22;6785;57.918;12.530;2022-07-29T13:19:09;22.90;99.90
13426;DHT22;6785;57.918;12.530;2022-07-29T13:21:39;22.60;99.90
13426;DHT22;6785;57.918;12.530;2022-07-29T13:24:07;22.30;99.90
13426;DHT22;6785;57.918;12.530;2022-07-29T13:26:34;22.20;99.90
13426;DHT22;6785;57.918;12.530;2022-07-29T13:29:02;22.20;99.90
13426;DHT22;6785;57.918;12.530;2022-07-29T13:31:30;22.10;99.90
13426;DHT22;6785;57.918;12.530;2022-07-29T13:33:57;22.10;99.90
13426;DHT22;6785;57.918;12.530;2022-07-29T13:36:24;22.00;99.90
13426;DHT22;6785;57.918;12.530;2022-07-29T13:38:52;22.00;99.90
13426;DHT22;6785;57.918;12.530;2022-07-29T13:41:19;22.00;99.90
13426;DHT22;6785;57.918;12.530;2022-07-29T13:43:46;22.00;99.90
13426;DHT22;6785;57.918;12.530;2022-07-29T13:46:13;21.80;99.90
13426;DHT22;6785;57.918;12.530;2022-07-29T13:48:41;21.80;99.90
13426;DHT22;6785;57.918;12.530;2022-07-29T13:51:08;21.80;99.90
13426;DHT22;6785;57.918;12.530;2022-07-29T13:53:35;21.80;99.90
13426;DHT22;6785;57.918;12.530;2022-07-29T13:56:02;21.80;99.90
13426;DHT22;6785;57.918;12.530;2022-07-29T13:58:31;21.80;99.90
13426;DHT22;6785;57.918;12.530;2022-07-29T14:00:58;21.80;99.90
13426;DHT22;6785;57.918;12.530;2022-07-29T14:03:25;21.80;99.90
13426;DHT22;6785;57.918;12.530;2022-07-29T14:05:53;21.80;99.90
13426;DHT22;6785;57.918;12.530;2022-07-29T14:08:20;21.70;99.90
13426;DHT22;6785;57.918;12.530;2022-07-29T14:10:47;21.70;99.90
13426;DHT22;6785;57.918;12.530;2022-07-29T14:13:14;21.60;99.90
13426;DHT22;6785;57.918;12.530;2022-07-29T14:15:41;21.60;99.90
13426;DHT22;6785;57.918;12.530;2022-07-29T14:18:07;21.70;99.90
13426;DHT22;6785;57.918;12.530;2022-07-29T14:20:34;21.80;99.90
13426;DHT22;6785;57.918;12.530;2022-07-29T14:23:03;21.90;99.90
13426;DHT22;6785;57.918;12.530;2022-07-29T14:25:30;22.00;99.90
13426;DHT22;6785;57.918;12.530;2022-07-29T14:27:57;22.20;99.90
13426;DHT22;6785;57.918;12.530;2022-07-29T14:30:24;22.20;99.90
13426;DHT22;6785;57.918;12.530;2022-07-29T14:32:50;22.30;99.90
13426;DHT22;6785;57.918;12.530;2022-07-29T14:35:17;22.40;99.90
13426;DHT22;6785;57.918;12.530;2022-07-29T14:37:44;22.50;99.90
13426;DHT22;6785;57.918;12.530;2022-07-29T14:40:12;22.70;99.90
13426;DHT22;6785;57.918;12.530;2022-07-29T14:42:39;23.00;99.90
13426;DHT22;6785;57.918;12.530;2022-07-29T14:45:08;23.20;99.90
13426;DHT22;6785;57.918;12.530;2022-07-29T14:47:35;23.30;99.90
13426;DHT22;6785;57.918;12.530;2022-07-29T14:50:03;23.30;99.90
13426;DHT22;6785;57.918;12.530;2022-07-29T14:52:30;23.40;99.90
13426;DHT22;6785;57.918;12.530;2022-07-29T14:54:57;23.40;99.90
13426;DHT22;6785;57.918;12.530;2022-07-29T14:57:25;23.50;99.90
13426;DHT22;6785;57.918;12.530;2022-07-29T14:59:52;23.60;99.90
13426;DHT22;6785;57.918;12.530;2022-07-29T15:02:19;23.60;99.90
13426;DHT22;6785;57.918;12.530;2022-07-29T15:04:46;23.60;99.90
13426;DHT22;6785;57.918;12.530;2022-07-29T15:07:13;23.70;99.90
13426;DHT22;6785;57.918;12.530;2022-07-29T15:09:41;23.60;99.90
13426;DHT22;6785;57.918;12.530;2022-07-29T15:12:08;23.50;99.90
13426;DHT22;6785;57.918;12.530;2022-07-29T15:14:37;23.60;99.90
13426;DHT22;6785;57.918;12.530;2022-07-29T15:17:04;23.50;99.90
13426;DHT22;6785;57.918;12.530;2022-07-29T15:19:31;23.40;99.90
13426;DHT22;6785;57.918;12.530;2022-07-29T15:21:58;23.10;99.90
13426;DHT22;6785;57.918;12.530;2022-07-29T15:24:25;22.90;99.90
13426;DHT22;6785;57.918;12.530;2022-07-29T15:26:52;22.70;99.90
13426;DHT22;6785;57.918;12.530;2022-07-29T15:29:19;22.50;99.90
13426;DHT22;6785;57.918;12.530;2022-07-29T15:31:48;22.40;99.90
13426;DHT22;6785;57.918;12.530;2022-07-29T15:34:15;22.20;99.90
13426;DHT22;6785;57.918;12.530;2022-07-29T15:36:42;22.10;99.90
13426;DHT22;6785;57.918;12.530;2022-07-29T15:39:09;22.20;99.90
13426;DHT22;6785;57.918;12.530;2022-07-29T15:41:36;22.20;99.90
13426;DHT22;6785;57.918;12.530;2022-07-29T15:44:03;22.30;99.90
13426;DHT22;6785;57.918;12.530;2022-07-29T15:46:30;22.50;99.90